createdAt,value
2022-07-29T00:01:43.793Z,101323.88
2022-07-29T00:04:13.085Z,101315.56
2022-07-29T00:06:44.131Z,101315.22
2022-07-29T00:09:14.720Z,101317.56
2022-07-29T00:11:44.637Z,101311.09
2022-07-29T00:14:13.258Z,101314.31
2022-07-29T00:16:42.945Z,101309.72
2022-07-29T00:19:11.701Z,101307.66
2022-07-29T00:21:42.033Z,101302.56
2022-07-29T00:24:10.779Z,101293.38
2022-07-29T00:26:40.638Z,101293.00
2022-07-29T00:31:57.767Z,101306.84
2022-07-29T00:34:43.319Z,101302.91
2022-07-29T00:37:13.171Z,101305.25
2022-07-29T00:39:42.079Z,101292.53
2022-07-29T00:42:12.033Z,101284.28
2022-07-29T00:44:41.371Z,101290.16
2022-07-29T00:47:10.851Z,101284.03
2022-07-29T00:49:42.286Z,101276.59
2022-07-29T00:52:12.753Z,101275.88
2022-07-29T00:54:45.916Z,101280.31
2022-07-29T00:57:17.299Z,101273.88
2022-07-29T00:59:46.464Z,101278.97
2022-07-29T01:02:15.217Z,101277.25
2022-07-29T01:04:44.297Z,101278.56
2022-07-29T01:07:13.640Z,101281.09
2022-07-29T01:09:47.169Z,101274.28
2022-07-29T01:12:29.796Z,101280.88
2022-07-29T01:14:59.932Z,101276.13
2022-07-29T01:17:35.209Z,101268.78
2022-07-29T01:20:12.805Z,101270.28
2022-07-29T01:23:21.578Z,101281.41
2022-07-29T01:26:42.015Z,101278.69
2022-07-29T01:29:36.075Z,101287.66
2022-07-29T01:32:28.651Z,101289.34
2022-07-29T01:35:04.257Z,101281.09
2022-07-29T01:37:42.165Z,101278.53
2022-07-29T01:40:19.381Z,101279.41
2022-07-29T01:42:52.658Z,101287.66
2022-07-29T01:45:29.613Z,101281.69
2022-07-29T01:48:03.429Z,101280.31
2022-07-29T01:50:36.620Z,101271.44
2022-07-29T01:53:09.232Z,101265.66
2022-07-29T01:55:43.546Z,101270.00
2022-07-29T01:58:15.379Z,101270.91
2022-07-29T02:00:48.286Z,101273.56
2022-07-29T02:03:20.054Z,101277.72
2022-07-29T02:05:51.848Z,101276.88
2022-07-29T02:08:23.400Z,101270.94
2022-07-29T02:10:55.108Z,101262.69
2022-07-29T02:13:28.557Z,101256.56
2022-07-29T02:16:01.083Z,101255.41
2022-07-29T02:18:30.842Z,101256.66
2022-07-29T02:21:01.893Z,101269.16
2022-07-29T02:23:31.558Z,101266.16
2022-07-29T02:26:24.560Z,101274.94
2022-07-29T02:28:58.876Z,101282.06
2022-07-29T02:31:35.355Z,101273.06
2022-07-29T02:34:06.366Z,101281.03
2022-07-29T02:36:36.285Z,101277.34
2022-07-29T02:39:10.548Z,101275.47
2022-07-29T02:41:46.106Z,101275.31
2022-07-29T02:44:17.327Z,101274.16
2022-07-29T02:46:52.166Z,101274.00
2022-07-29T02:49:32.417Z,101279.09
2022-07-29T02:52:04.342Z,101282.34
2022-07-29T02:54:40.747Z,101274.06
2022-07-29T02:57:16.501Z,101282.19
2022-07-29T02:59:47.879Z,101279.31
2022-07-29T03:02:19.229Z,101282.19
2022-07-29T03:04:51.789Z,101286.28
2022-07-29T03:07:23.325Z,101293.53
2022-07-29T03:09:53.326Z,101288.97
2022-07-29T03:12:22.779Z,101285.28
2022-07-29T03:14:51.765Z,101280.25
2022-07-29T03:17:24.430Z,101288.91
2022-07-29T03:19:53.519Z,101286.56
2022-07-29T03:22:22.573Z,101292.50
2022-07-29T03:24:51.869Z,101288.66
2022-07-29T03:27:21.282Z,101299.16
2022-07-29T03:29:50.729Z,101305.09
2022-07-29T03:32:25.097Z,101300.38
2022-07-29T03:34:54.156Z,101299.75
2022-07-29T03:37:26.459Z,101300.47
2022-07-29T03:39:58.954Z,101304.84
2022-07-29T03:42:34.156Z,101303.38
2022-07-29T03:45:08.294Z,101301.03
2022-07-29T03:47:50.973Z,101306.13
2022-07-29T03:50:25.784Z,101299.22
2022-07-29T03:52:55.086Z,101302.31
2022-07-29T03:55:29.403Z,101300.63
2022-07-29T03:57:59.279Z,101309.72
2022-07-29T04:00:30.041Z,101305.16
2022-07-29T04:03:00.993Z,101303.94
2022-07-29T04:05:29.603Z,101303.56
2022-07-29T04:07:58.524Z,101310.16
2022-07-29T04:10:32.078Z,101298.50
2022-07-29T04:13:03.612Z,101293.94
2022-07-29T04:15:32.117Z,101297.16
2022-07-29T04:18:02.282Z,101300.38
2022-07-29T04:20:42.146Z,101297.50
2022-07-29T04:23:10.919Z,101299.22
2022-07-29T04:25:43.175Z,101295.81
2022-07-29T04:28:12.723Z,101297.00
2022-07-29T04:30:41.823Z,101292.38
2022-07-29T04:33:13.496Z,101293.41
2022-07-29T04:35:49.730Z,101285.59
2022-07-29T04:38:19.528Z,101288.28
2022-07-29T04:40:49.729Z,101280.66
2022-07-29T04:43:22.529Z,101288.94
2022-07-29T04:45:52.434Z,101296.38
2022-07-29T04:48:33.312Z,101296.69
2022-07-29T04:51:01.956Z,101296.84
2022-07-29T04:53:32.429Z,101302.94
2022-07-29T04:56:01.698Z,101296.97
2022-07-29T04:58:31.025Z,101296.69
2022-07-29T05:01:00.228Z,101301.25
2022-07-29T05:03:40.980Z,101308.72
2022-07-29T05:06:12.734Z,101302.16
2022-07-29T05:08:41.915Z,101302.53
2022-07-29T05:13:58.713Z,101309.31
2022-07-29T05:16:30.158Z,101314.56
2022-07-29T05:19:00.497Z,101313.72
2022-07-29T05:21:30.455Z,101309.31
2022-07-29T05:23:59.615Z,101320.63
2022-07-29T05:26:28.777Z,101325.91
2022-07-29T05:34:30.792Z,101325.28
2022-07-29T05:37:00.526Z,101334.59
2022-07-29T05:39:36.621Z,101331.59
2022-07-29T05:42:19.072Z,101342.59
2022-07-29T05:44:48.924Z,101341.13
2022-07-29T05:47:17.454Z,101347.59
2022-07-29T05:49:50.707Z,101351.19
2022-07-29T05:52:21.686Z,101352.78
2022-07-29T05:54:52.553Z,101357.56
2022-07-29T05:57:25.359Z,101363.53
2022-07-29T05:59:54.917Z,101370.16
2022-07-29T06:02:27.011Z,101376.63
2022-07-29T06:05:03.749Z,101375.78
2022-07-29T06:07:34.112Z,101376.00
2022-07-29T06:10:05.177Z,101387.38
2022-07-29T06:12:34.179Z,101384.00
2022-07-29T06:15:03.265Z,101387.22
2022-07-29T06:17:32.854Z,101386.72
2022-07-29T06:20:18.950Z,101387.59
2022-07-29T06:23:00.308Z,101381.53
2022-07-29T06:25:49.771Z,101381.00
2022-07-29T06:28:35.047Z,101388.16
2022-07-29T06:31:08.408Z,101392.41
2022-07-29T06:34:26.005Z,101402.06
2022-07-29T06:37:04.278Z,101386.81
2022-07-29T06:39:35.384Z,101393.09
2022-07-29T06:42:10.753Z,101397.69
2022-07-29T06:44:39.188Z,101393.47
2022-07-29T06:47:09.305Z,101387.53
2022-07-29T06:49:38.166Z,101394.97
2022-07-29T06:52:08.141Z,101399.72
2022-07-29T06:54:36.408Z,101407.03
2022-07-29T06:57:06.001Z,101399.38
2022-07-29T06:59:35.956Z,101406.00
2022-07-29T07:02:04.886Z,101401.44
2022-07-29T07:04:37.671Z,101395.66
2022-07-29T07:07:07.796Z,101394.09
2022-07-29T07:09:40.494Z,101392.53
2022-07-29T07:12:11.359Z,101401.66
2022-07-29T07:14:41.324Z,101399.72
2022-07-29T07:17:13.242Z,101399.56
2022-07-29T07:19:44.354Z,101398.13
2022-07-29T07:22:20.758Z,101398.09
2022-07-29T07:24:54.891Z,101392.63
2022-07-29T07:27:47.127Z,101397.84
2022-07-29T07:33:37.569Z,101403.41
2022-07-29T07:36:25.002Z,101402.81
2022-07-29T07:39:15.883Z,101408.03
2022-07-29T07:41:44.441Z,101406.94
2022-07-29T07:44:16.364Z,101403.81
2022-07-29T07:46:47.029Z,101403.44
2022-07-29T07:49:21.328Z,101413.78
2022-07-29T07:54:50.925Z,101408.75
2022-07-29T07:57:39.896Z,101408.88
2022-07-29T08:00:23.321Z,101410.75
2022-07-29T08:02:59.874Z,101410.19
2022-07-29T08:05:34.944Z,101411.22
2022-07-29T08:08:16.602Z,101412.38
2022-07-29T08:11:08.765Z,101414.53
2022-07-29T08:14:11.493Z,101417.09
2022-07-29T08:16:44.863Z,101413.00
2022-07-29T08:19:30.465Z,101408.59
2022-07-29T08:25:40.918Z,101418.72
2022-07-29T08:28:29.635Z,101414.69
2022-07-29T08:30:58.297Z,101415.22
2022-07-29T08:33:31.442Z,101413.31
2022-07-29T08:36:00.102Z,101409.41
2022-07-29T08:41:27.046Z,101409.81
2022-07-29T08:46:57.014Z,101399.69
2022-07-29T08:49:34.233Z,101411.47
2022-07-29T08:52:05.855Z,101417.34
2022-07-29T08:54:36.987Z,101415.34
2022-07-29T08:57:05.779Z,101416.72
2022-07-29T08:59:38.775Z,101417.69
2022-07-29T09:02:21.180Z,101410.19
2022-07-29T09:04:53.026Z,101405.16
2022-07-29T09:07:36.011Z,101416.59
2022-07-29T09:13:25.658Z,101405.81
2022-07-29T09:15:55.897Z,101412.16
2022-07-29T09:19:00.184Z,101407.97
2022-07-29T09:22:07.014Z,101405.84
2022-07-29T09:25:04.788Z,101407.31
2022-07-29T09:27:41.720Z,101406.44
2022-07-29T09:30:30.468Z,101404.75
2022-07-29T09:33:05.519Z,101403.66
2022-07-29T09:41:47.326Z,101404.84
2022-07-29T09:44:23.444Z,101415.59
2022-07-29T09:47:17.106Z,101418.94
2022-07-29T09:49:59.507Z,101425.22
2022-07-29T09:52:34.764Z,101426.81
2022-07-29T09:55:18.100Z,101430.09
2022-07-29T09:58:06.380Z,101440.41
2022-07-29T10:16:10.427Z,101432.44
2022-07-29T10:18:44.868Z,101429.31
2022-07-29T10:34:37.850Z,101405.28
2022-07-29T10:37:35.530Z,101407.66
2022-07-29T10:40:38.433Z,101404.59
2022-07-29T10:46:16.009Z,101397.59
2022-07-29T10:52:05.784Z,101383.72
2022-07-29T10:57:25.910Z,101374.88
2022-07-29T11:00:35.124Z,101378.63
2022-07-29T11:03:10.577Z,101384.78
2022-07-29T11:06:00.294Z,101395.09
2022-07-29T11:08:38.419Z,101396.34
2022-07-29T11:11:51.484Z,101403.31
2022-07-29T11:14:26.444Z,101395.09
2022-07-29T11:17:10.261Z,101400.56
2022-07-29T11:19:52.545Z,101403.47
2022-07-29T11:22:37.237Z,101408.53
2022-07-29T11:25:43.035Z,101411.06
2022-07-29T11:28:22.681Z,101404.72
2022-07-29T11:30:59.176Z,101407.63
2022-07-29T11:33:54.815Z,101403.38
2022-07-29T11:36:28.206Z,101409.06
2022-07-29T11:42:52.002Z,101417.41
2022-07-29T11:45:48.359Z,101424.63
2022-07-29T11:48:31.500Z,101423.97
2022-07-29T11:51:04.761Z,101423.75
2022-07-29T11:53:37.168Z,101428.41
2022-07-29T11:56:10.395Z,101425.59
2022-07-29T11:58:42.699Z,101434.63
2022-07-29T12:01:17.183Z,101433.34
2022-07-29T12:03:51.807Z,101430.41
2022-07-29T12:06:33.876Z,101430.44
2022-07-29T12:07:03.237Z,101411.03
2022-07-29T12:09:19.187Z,101421.22
2022-07-29T12:11:54.207Z,101414.47
2022-07-29T12:17:54.200Z,101407.72
2022-07-29T12:20:29.257Z,101418.06
2022-07-29T12:22:59.392Z,101417.38
2022-07-29T12:25:35.575Z,101410.59
2022-07-29T12:28:27.390Z,101420.69
2022-07-29T12:30:57.326Z,101417.72
2022-07-29T12:33:33.240Z,101415.75
2022-07-29T12:36:11.586Z,101418.22
2022-07-29T12:39:11.454Z,101411.00
2022-07-29T12:50:22.106Z,101424.06
2022-07-29T12:52:55.667Z,101427.22
2022-07-29T12:55:45.656Z,101424.06
2022-07-29T12:58:22.114Z,101427.25
2022-07-29T13:01:01.936Z,101430.31
2022-07-29T13:06:08.833Z,101438.00
2022-07-29T13:08:41.031Z,101450.91
2022-07-29T13:11:09.690Z,101455.75
2022-07-29T13:17:04.044Z,101468.59
2022-07-29T13:19:44.826Z,101471.50
2022-07-29T13:22:18.160Z,101465.25
2022-07-29T13:25:20.924Z,101471.34
2022-07-29T13:27:59.495Z,101467.47
2022-07-29T13:30:30.123Z,101471.88
2022-07-29T13:33:01.998Z,101467.22
2022-07-29T13:35:40.152Z,101460.53
2022-07-29T13:38:10.394Z,101450.31
2022-07-29T13:41:22.938Z,101452.91
2022-07-29T13:44:05.176Z,101450.41
2022-07-29T13:46:39.553Z,101440.81
2022-07-29T13:49:12.569Z,101438.69
2022-07-29T13:51:41.271Z,101442.13
2022-07-29T13:54:12.636Z,101435.84
2022-07-29T13:56:44.564Z,101442.28
2022-07-29T13:59:18.976Z,101435.16
2022-07-29T14:01:50.572Z,101446.59
2022-07-29T14:04:20.201Z,101440.34
2022-07-29T14:06:51.098Z,101453.31
2022-07-29T14:09:20.862Z,101439.00
2022-07-29T14:11:51.582Z,101444.97
2022-07-29T14:14:37.857Z,101436.25
2022-07-29T14:17:11.368Z,101439.00
2022-07-29T14:19:50.478Z,101440.81
2022-07-29T14:22:23.089Z,101451.16
2022-07-29T14:25:21.201Z,101452.00
2022-07-29T14:31:07.272Z,101453.22
2022-07-29T14:33:39.730Z,101452.53
2022-07-29T14:36:10.688Z,101461.91
2022-07-29T14:38:39.750Z,101459.72
2022-07-29T14:41:19.734Z,101468.81
2022-07-29T14:44:16.434Z,101471.13
2022-07-29T14:46:50.009Z,101469.06
2022-07-29T14:49:22.239Z,101474.25
2022-07-29T14:51:51.920Z,101474.75
2022-07-29T14:54:21.728Z,101467.44
2022-07-29T14:56:56.784Z,101465.13
2022-07-29T14:59:25.743Z,101473.13
2022-07-29T15:01:58.625Z,101468.41
2022-07-29T15:04:35.409Z,101471.56
2022-07-29T15:07:07.235Z,101472.31
2022-07-29T15:09:49.312Z,101473.63
2022-07-29T15:12:21.043Z,101481.13
2022-07-29T15:14:54.054Z,101477.25
2022-07-29T15:17:40.412Z,101487.41
2022-07-29T15:20:10.433Z,101477.16
2022-07-29T15:22:46.044Z,101468.81
2022-07-29T15:25:24.618Z,101474.25
2022-07-29T15:28:00.943Z,101475.81
2022-07-29T15:30:42.756Z,101478.31
2022-07-29T15:33:22.090Z,101474.91
2022-07-29T15:39:07.808Z,101466.81
2022-07-29T15:41:38.776Z,101471.75
2022-07-29T15:44:08.637Z,101467.78
2022-07-29T15:49:59.731Z,101458.09
2022-07-29T15:52:32.225Z,101456.28
2022-07-29T15:55:17.551Z,101453.06
2022-07-29T15:57:47.900Z,101438.75
2022-07-29T16:00:20.112Z,101441.34
2022-07-29T16:02:51.187Z,101436.91
2022-07-29T16:05:25.389Z,101445.97
2022-07-29T16:07:54.222Z,101445.81
2022-07-29T16:10:23.676Z,101443.06
2022-07-29T16:12:55.642Z,101442.25
2022-07-29T16:15:26.198Z,101443.06
2022-07-29T16:17:58.212Z,101438.91
2022-07-29T16:20:28.295Z,101447.50
2022-07-29T16:22:58.204Z,101451.16
2022-07-29T16:25:57.580Z,101446.50
2022-07-29T16:28:15.860Z,101450.44
2022-07-29T16:30:44.626Z,101445.75
2022-07-29T16:33:15.213Z,101448.25
2022-07-29T16:36:01.043Z,101459.38
2022-07-29T16:38:47.205Z,101457.09
2022-07-29T16:41:24.276Z,101458.78
2022-07-29T16:44:00.299Z,101450.44
2022-07-29T16:46:35.142Z,101461.25
2022-07-29T16:49:06.524Z,101466.81
2022-07-29T16:51:39.095Z,101462.00
2022-07-29T16:57:06.781Z,101466.03
2022-07-29T16:59:43.374Z,101468.78
2022-07-29T17:02:13.016Z,101478.53
2022-07-29T17:04:43.258Z,101472.09
2022-07-29T17:07:34.146Z,101464.31
2022-07-29T17:10:06.261Z,101461.78
2022-07-29T17:12:36.847Z,101470.84
2022-07-29T17:15:06.829Z,101467.09
2022-07-29T17:17:38.913Z,101459.56
2022-07-29T17:20:25.003Z,101467.31
2022-07-29T17:22:56.568Z,101464.78
2022-07-29T17:25:25.137Z,101469.00
2022-07-29T17:28:00.725Z,101459.72
2022-07-29T17:30:40.538Z,101464.94
2022-07-29T17:33:15.709Z,101460.34
2022-07-29T17:36:01.808Z,101458.94
2022-07-29T17:38:32.393Z,101461.78
2022-07-29T17:41:01.555Z,101475.41
2022-07-29T17:44:04.165Z,101469.47
2022-07-29T17:46:50.555Z,101466.41
2022-07-29T17:49:20.566Z,101464.38
2022-07-29T17:52:02.037Z,101469.72
2022-07-29T17:54:44.153Z,101480.66
2022-07-29T17:57:24.906Z,101493.09
2022-07-29T17:59:54.244Z,101492.16
2022-07-29T18:02:23.797Z,101487.19
2022-07-29T18:04:55.201Z,101490.38
2022-07-29T18:07:24.664Z,101487.72
2022-07-29T18:10:00.902Z,101490.81
2022-07-29T18:12:37.180Z,101500.25
2022-07-29T18:15:23.228Z,101486.38
2022-07-29T18:17:57.765Z,101485.03
2022-07-29T18:20:27.676Z,101486.19
2022-07-29T18:22:58.551Z,101481.16
2022-07-29T18:25:43.966Z,101483.75
2022-07-29T18:28:15.808Z,101483.91
2022-07-29T18:30:46.522Z,101477.38
2022-07-29T18:33:22.633Z,101468.00
2022-07-29T18:36:10.002Z,101470.13
2022-07-29T18:38:42.946Z,101471.25
2022-07-29T18:41:12.692Z,101476.53
2022-07-29T18:43:46.170Z,101486.56
2022-07-29T18:46:15.463Z,101489.91
2022-07-29T18:48:44.064Z,101497.22
2022-07-29T18:51:14.336Z,101489.75
2022-07-29T18:53:42.610Z,101486.41
2022-07-29T18:56:12.351Z,101482.06
2022-07-29T18:58:40.997Z,101478.34
2022-07-29T19:01:14.764Z,101477.38
2022-07-29T19:03:45.262Z,101476.56
2022-07-29T19:06:13.931Z,101470.53
2022-07-29T19:08:46.792Z,101469.56
2022-07-29T19:11:30.719Z,101478.53
2022-07-29T19:13:59.056Z,101476.31
2022-07-29T19:16:27.490Z,101478.72
2022-07-29T19:18:56.396Z,101476.97
2022-07-29T19:21:28.121Z,101482.53
2022-07-29T19:24:01.411Z,101481.22
2022-07-29T19:26:46.625Z,101478.66
2022-07-29T19:29:15.113Z,101489.22
2022-07-29T19:31:44.277Z,101493.09
2022-07-29T19:34:12.827Z,101488.19
2022-07-29T19:36:42.083Z,101491.22
2022-07-29T19:39:10.747Z,101503.25
2022-07-29T19:41:40.661Z,101507.88
2022-07-29T19:44:08.950Z,101498.56
2022-07-29T19:46:37.600Z,101505.28
2022-07-29T19:49:07.012Z,101501.56
2022-07-29T19:51:36.274Z,101497.25
2022-07-29T19:54:04.930Z,101502.22
2022-07-29T19:56:34.618Z,101503.31
2022-07-29T19:59:08.508Z,101495.19
2022-07-29T20:01:37.262Z,101513.31
2022-07-29T20:04:05.889Z,101510.25
2022-07-29T20:06:34.276Z,101513.31
2022-07-29T20:09:02.627Z,101517.44
2022-07-29T20:11:31.077Z,101517.91
2022-07-29T20:13:59.999Z,101515.41
2022-07-29T20:16:30.177Z,101514.78
2022-07-29T20:19:01.015Z,101524.94
2022-07-29T20:21:29.536Z,101532.13
2022-07-29T20:24:00.530Z,101530.34
2022-07-29T20:26:28.785Z,101536.94
2022-07-29T20:28:57.267Z,101526.75
2022-07-29T20:31:26.046Z,101526.19
2022-07-29T20:33:55.650Z,101529.66
2022-07-29T20:36:23.850Z,101520.56
2022-07-29T20:38:52.556Z,101524.00
2022-07-29T20:41:21.839Z,101519.31
2022-07-29T20:43:51.201Z,101516.66
2022-07-29T20:46:22.245Z,101514.53
2022-07-29T20:48:51.214Z,101516.09
2022-07-29T20:51:25.275Z,101521.25
2022-07-29T20:53:53.792Z,101521.16
2022-07-29T20:56:22.523Z,101522.53
2022-07-29T20:58:52.558Z,101527.03
2022-07-29T21:01:21.989Z,101518.72
2022-07-29T21:03:50.861Z,101513.66
2022-07-29T21:06:22.907Z,101517.06
2022-07-29T21:08:55.907Z,101515.94
2022-07-29T21:11:44.797Z,101517.53
2022-07-29T21:14:20.283Z,101511.13
2022-07-29T21:16:48.622Z,101518.16
2022-07-29T21:19:19.304Z,101510.88
2022-07-29T21:21:50.650Z,101503.59
2022-07-29T21:24:20.123Z,101497.19
2022-07-29T21:27:11.000Z,101505.41
2022-07-29T21:29:35.877Z,101518.53
2022-07-29T21:32:04.337Z,101509.06
2022-07-29T21:34:32.610Z,101512.84
2022-07-29T21:37:02.568Z,101517.13
2022-07-29T21:39:31.280Z,101520.75
2022-07-29T21:41:59.714Z,101528.59
2022-07-29T21:44:28.886Z,101526.19
2022-07-29T21:46:57.485Z,101518.75
2022-07-29T21:49:26.187Z,101532.69
2022-07-29T21:51:54.726Z,101530.66
2022-07-29T21:54:24.659Z,101517.06
2022-07-29T21:56:53.456Z,101517.25
2022-07-29T21:59:22.498Z,101525.88
2022-07-29T22:01:51.153Z,101532.72
2022-07-29T22:04:19.804Z,101528.28
2022-07-29T22:06:51.004Z,101512.84
2022-07-29T22:12:16.750Z,101514.75
2022-07-29T22:14:45.276Z,101520.66
2022-07-29T22:17:13.862Z,101517.47
2022-07-29T22:19:42.563Z,101523.75
2022-07-29T22:22:11.086Z,101525.81
2022-07-29T22:24:39.402Z,101528.16
2022-07-29T22:27:07.675Z,101535.13
2022-07-29T22:29:37.789Z,101534.13
2022-07-29T22:32:06.553Z,101529.53
2022-07-29T22:34:37.228Z,101534.13
2022-07-29T22:37:06.541Z,101527.66
2022-07-29T22:39:35.387Z,101531.41
2022-07-29T22:42:05.163Z,101531.91
2022-07-29T22:44:33.443Z,101534.25
2022-07-29T22:47:04.139Z,101527.97
2022-07-29T22:49:32.590Z,101527.63
2022-07-29T22:52:02.346Z,101522.88
2022-07-29T22:54:30.791Z,101527.25
2022-07-29T22:56:59.455Z,101539.09
2022-07-29T22:59:27.992Z,101537.22
2022-07-29T23:01:56.443Z,101539.72
2022-07-29T23:04:26.441Z,101548.03
2022-07-29T23:06:54.837Z,101542.06
2022-07-29T23:09:23.113Z,101543.78
2022-07-29T23:11:51.479Z,101544.44
2022-07-29T23:14:20.047Z,101536.97
2022-07-29T23:16:49.229Z,101538.47
2022-07-29T23:19:17.816Z,101532.66
2022-07-29T23:21:47.436Z,101530.09
2022-07-29T23:24:15.622Z,101527.53
2022-07-29T23:26:43.758Z,101524.31
2022-07-29T23:29:12.053Z,101532.91
2022-07-29T23:31:47.757Z,101521.22
2022-07-29T23:34:16.645Z,101523.19
2022-07-29T23:36:47.677Z,101525.84
2022-07-29T23:39:16.263Z,101520.53
2022-07-29T23:41:44.463Z,101527.47
2022-07-29T23:44:12.594Z,101527.75
2022-07-29T23:46:40.923Z,101524.00
2022-07-29T23:49:09.246Z,101526.19
2022-07-29T23:51:37.473Z,101516.66
2022-07-29T23:54:07.319Z,101509.38
2022-07-29T23:56:35.531Z,101511.78
2022-07-29T23:59:03.983Z,101520.75
